createdAt,value
2017-12-25T00:00:24.106Z,0
2017-12-25T00:01:04.651Z,0
2017-12-25T00:01:45.189Z,0
2017-12-25T00:02:25.730Z,0
2017-12-25T00:03:06.278Z,0
2017-12-25T00:03:46.837Z,0
2017-12-25T00:04:27.311Z,0
2017-12-25T00:05:07.855Z,0
2017-12-25T00:05:48.409Z,0
2017-12-25T00:06:28.997Z,0
2017-12-25T00:07:09.537Z,0
2017-12-25T00:07:50.058Z,0
2017-12-25T00:08:30.614Z,0
2017-12-25T00:09:11.165Z,0
2017-12-25T00:09:51.707Z,0
2017-12-25T00:10:32.230Z,0
2017-12-25T00:11:12.784Z,0
2017-12-25T00:11:53.277Z,0
2017-12-25T00:12:33.840Z,0
2017-12-25T00:13:14.393Z,0
2017-12-25T00:13:54.932Z,0
2017-12-25T00:14:35.502Z,0
2017-12-25T00:15:16.029Z,0
2017-12-25T00:15:56.592Z,0
2017-12-25T00:16:37.133Z,0
2017-12-25T00:17:17.667Z,0
2017-12-25T00:17:58.199Z,0
2017-12-25T00:18:38.748Z,0
2017-12-25T00:19:19.278Z,0
2017-12-25T00:19:59.839Z,0
2017-12-25T00:20:40.336Z,0
2017-12-25T00:21:20.898Z,0
2017-12-25T00:22:01.448Z,0
2017-12-25T00:22:42.016Z,0
2017-12-25T00:23:22.578Z,0
2017-12-25T00:24:03.122Z,0
2017-12-25T00:24:43.667Z,0
2017-12-25T00:25:24.209Z,0
2017-12-25T00:26:04.758Z,0
2017-12-25T00:26:45.330Z,0
2017-12-25T00:27:25.876Z,0
2017-12-25T00:28:06.435Z,0
2017-12-25T00:28:46.964Z,0
2017-12-25T00:29:27.508Z,0
2017-12-25T00:30:08.117Z,0
2017-12-25T00:30:48.586Z,0
2017-12-25T00:31:29.151Z,0
2017-12-25T00:32:09.718Z,0
2017-12-25T00:32:50.263Z,0
2017-12-25T00:33:30.779Z,0
2017-12-25T00:34:11.328Z,0
2017-12-25T00:34:51.919Z,0
2017-12-25T00:35:32.411Z,0
2017-12-25T00:36:12.971Z,0
2017-12-25T00:36:53.499Z,0
2017-12-25T00:37:34.065Z,0
2017-12-25T00:38:14.602Z,0
2017-12-25T00:38:55.138Z,0
2017-12-25T00:39:35.701Z,0
2017-12-25T00:40:16.224Z,0
2017-12-25T00:40:56.756Z,0
2017-12-25T00:41:37.289Z,0
2017-12-25T00:42:17.865Z,0
2017-12-25T00:42:58.399Z,0
2017-12-25T00:43:38.934Z,0
2017-12-25T00:44:19.466Z,0
2017-12-25T00:45:00.057Z,0
2017-12-25T00:45:40.575Z,0
2017-12-25T00:46:21.154Z,0
2017-12-25T00:47:01.669Z,0
2017-12-25T00:47:42.224Z,0
2017-12-25T00:48:22.786Z,0
2017-12-25T00:49:03.333Z,0
2017-12-25T00:49:43.884Z,0
2017-12-25T00:50:24.466Z,0
2017-12-25T00:51:05.040Z,0
2017-12-25T00:51:45.561Z,0
2017-12-25T00:52:26.125Z,0
2017-12-25T00:53:06.640Z,0
2017-12-25T00:53:47.203Z,0
2017-12-25T00:54:27.733Z,0
2017-12-25T00:55:08.307Z,0
2017-12-25T00:55:48.850Z,0
2017-12-25T00:56:29.413Z,0
2017-12-25T00:57:09.958Z,0
2017-12-25T00:57:50.507Z,0
2017-12-25T00:58:31.164Z,0
2017-12-25T00:59:11.605Z,0
2017-12-25T00:59:52.173Z,0
2017-12-25T01:00:32.795Z,0
2017-12-25T01:01:13.294Z,0
2017-12-25T01:01:53.854Z,0
2017-12-25T01:02:34.410Z,0
2017-12-25T01:03:14.948Z,0
2017-12-25T01:03:55.475Z,0
2017-12-25T01:04:36.007Z,0
2017-12-25T01:05:16.520Z,0
2017-12-25T01:05:57.064Z,0
2017-12-25T01:06:37.588Z,0
2017-12-25T01:07:18.121Z,0
2017-12-25T01:07:58.717Z,0
2017-12-25T01:08:39.208Z,0
2017-12-25T01:09:19.762Z,0
2017-12-25T01:10:00.330Z,0
2017-12-25T01:10:40.865Z,0
2017-12-25T01:11:21.400Z,0
2017-12-25T01:12:01.955Z,0
2017-12-25T01:12:42.478Z,0
2017-12-25T01:13:23.013Z,0
2017-12-25T01:14:03.587Z,0
2017-12-25T01:14:44.124Z,0
2017-12-25T01:15:24.652Z,0
2017-12-25T01:16:05.213Z,0
2017-12-25T01:16:45.748Z,0
2017-12-25T01:17:26.322Z,0
2017-12-25T01:18:06.887Z,0
2017-12-25T01:18:47.377Z,0
2017-12-25T01:19:27.912Z,0
2017-12-25T01:20:08.472Z,0
2017-12-25T01:20:48.993Z,0
2017-12-25T01:21:29.580Z,0
2017-12-25T01:22:10.098Z,0
2017-12-25T01:22:50.613Z,0
2017-12-25T01:23:31.137Z,0
2017-12-25T01:24:11.688Z,0
2017-12-25T01:24:52.254Z,0
2017-12-25T01:25:32.813Z,0
2017-12-25T01:26:13.360Z,0
2017-12-25T01:26:53.900Z,0
2017-12-25T01:27:34.432Z,0
2017-12-25T01:28:15.034Z,0
2017-12-25T01:30:28.316Z,0
2017-12-25T01:31:08.875Z,0
2017-12-25T01:31:49.399Z,0
2017-12-25T01:32:29.953Z,0
2017-12-25T01:33:10.453Z,0
2017-12-25T01:33:50.995Z,0
2017-12-25T01:34:31.559Z,0
2017-12-25T01:35:12.074Z,0
2017-12-25T01:35:52.611Z,0
2017-12-25T01:36:33.085Z,0
2017-12-25T01:37:13.654Z,0
2017-12-25T01:37:54.219Z,0
2017-12-25T01:38:34.751Z,0
2017-12-25T01:39:15.316Z,0
2017-12-25T01:39:55.870Z,0
2017-12-25T01:40:36.392Z,0
2017-12-25T01:41:16.920Z,0
2017-12-25T01:41:57.455Z,0
2017-12-25T01:42:37.986Z,0
2017-12-25T01:43:18.523Z,0
2017-12-25T01:43:59.071Z,0
2017-12-25T01:44:39.607Z,0
2017-12-25T01:45:20.208Z,0
2017-12-25T01:46:00.717Z,0
2017-12-25T01:46:41.276Z,0
2017-12-25T01:47:21.825Z,0
2017-12-25T01:48:02.368Z,0
2017-12-25T01:48:42.916Z,0
2017-12-25T01:49:23.463Z,0
2017-12-25T01:50:03.982Z,0
2017-12-25T01:50:44.542Z,0
2017-12-25T01:51:25.076Z,0
2017-12-25T01:52:05.599Z,0
2017-12-25T01:52:46.140Z,0
2017-12-25T01:53:26.654Z,0
2017-12-25T01:54:07.221Z,0
2017-12-25T01:54:47.769Z,0
2017-12-25T01:55:28.302Z,0
2017-12-25T01:56:08.907Z,0
2017-12-25T01:56:49.420Z,0
2017-12-25T01:57:29.954Z,0
2017-12-25T01:58:10.458Z,0
2017-12-25T01:58:50.967Z,0
2017-12-25T01:59:31.492Z,0
2017-12-25T02:00:12.025Z,0
2017-12-25T02:00:52.579Z,0
2017-12-25T02:01:33.133Z,0
2017-12-25T02:02:13.793Z,0
2017-12-25T02:02:54.321Z,0
2017-12-25T02:03:34.891Z,0
2017-12-25T02:04:15.491Z,0
2017-12-25T02:04:55.974Z,0
2017-12-25T02:05:36.556Z,0
2017-12-25T02:06:17.102Z,0
2017-12-25T02:06:57.642Z,0
2017-12-25T02:07:38.188Z,0
2017-12-25T02:08:18.723Z,0
2017-12-25T02:08:59.292Z,0
2017-12-25T02:09:39.864Z,0
2017-12-25T02:10:20.423Z,0
2017-12-25T02:11:00.960Z,0
2017-12-25T02:11:41.461Z,0
2017-12-25T02:12:21.969Z,0
2017-12-25T02:13:02.511Z,0
2017-12-25T02:13:43.076Z,0
2017-12-25T02:14:23.625Z,0
2017-12-25T02:15:04.144Z,0
2017-12-25T02:15:44.697Z,0
2017-12-25T02:16:25.284Z,0
2017-12-25T02:17:05.804Z,0
2017-12-25T02:17:46.353Z,0
2017-12-25T02:18:26.910Z,0
2017-12-25T02:19:07.473Z,0
2017-12-25T02:19:48.029Z,0
2017-12-25T02:20:28.566Z,0
2017-12-25T02:21:09.112Z,0
2017-12-25T02:21:49.668Z,0
2017-12-25T02:22:30.177Z,0
2017-12-25T02:23:10.713Z,0
2017-12-25T02:23:51.270Z,0
2017-12-25T02:24:31.798Z,0
2017-12-25T02:25:12.314Z,0
2017-12-25T02:25:52.819Z,0
2017-12-25T02:26:33.388Z,0
2017-12-25T02:27:13.971Z,0
2017-12-25T02:27:54.482Z,0
2017-12-25T02:28:34.989Z,0
2017-12-25T02:29:15.555Z,0
2017-12-25T02:29:56.079Z,0
2017-12-25T02:30:36.611Z,0
2017-12-25T02:31:17.195Z,0
2017-12-25T02:31:57.710Z,0
2017-12-25T02:32:38.261Z,0
2017-12-25T02:33:18.830Z,0
2017-12-25T02:33:59.367Z,0
2017-12-25T02:34:39.896Z,0
2017-12-25T02:35:20.433Z,0
2017-12-25T02:36:01.017Z,0
2017-12-25T02:36:41.514Z,0
2017-12-25T02:37:22.062Z,0
2017-12-25T02:38:02.607Z,0
2017-12-25T02:38:43.123Z,0
2017-12-25T02:39:23.679Z,0
2017-12-25T02:40:04.248Z,0
2017-12-25T02:40:44.786Z,0
2017-12-25T02:41:25.362Z,0
2017-12-25T02:42:05.875Z,0
2017-12-25T02:42:46.398Z,0
2017-12-25T02:43:26.935Z,0
2017-12-25T02:44:07.478Z,0
2017-12-25T02:44:48.019Z,0
2017-12-25T02:45:28.543Z,0
2017-12-25T02:46:09.079Z,0
2017-12-25T02:46:49.615Z,0
2017-12-25T02:47:30.191Z,0
2017-12-25T02:48:11.236Z,0
2017-12-25T02:48:51.811Z,0
2017-12-25T02:49:32.303Z,0
2017-12-25T02:50:12.821Z,0
2017-12-25T02:50:53.366Z,0
2017-12-25T02:51:33.912Z,0
2017-12-25T02:52:14.460Z,0
2017-12-25T02:52:54.997Z,0
2017-12-25T02:53:35.586Z,0
2017-12-25T02:54:16.118Z,0
2017-12-25T02:54:56.673Z,0
2017-12-25T02:55:37.196Z,0
2017-12-25T02:56:17.738Z,0
2017-12-25T02:56:58.290Z,0
2017-12-25T02:57:38.795Z,0
2017-12-25T02:58:19.313Z,0
2017-12-25T02:58:59.873Z,0
2017-12-25T02:59:40.467Z,0
2017-12-25T03:00:20.939Z,0
2017-12-25T03:01:01.486Z,0
2017-12-25T03:01:42.079Z,0
2017-12-25T03:02:22.677Z,0
2017-12-25T03:03:03.214Z,0
2017-12-25T03:03:43.733Z,0
2017-12-25T03:04:24.261Z,0
2017-12-25T03:05:04.794Z,0
2017-12-25T03:05:45.354Z,0
2017-12-25T03:06:25.878Z,0
2017-12-25T03:07:06.441Z,0
2017-12-25T03:07:46.961Z,0
2017-12-25T03:08:27.512Z,0
2017-12-25T03:09:08.084Z,0
2017-12-25T03:09:48.632Z,0
2017-12-25T03:10:29.182Z,0
2017-12-25T03:11:09.724Z,0
2017-12-25T03:11:50.256Z,0
2017-12-25T03:12:30.761Z,0
2017-12-25T03:13:11.280Z,0
2017-12-25T03:13:51.841Z,0
2017-12-25T03:14:32.397Z,0
2017-12-25T03:15:12.925Z,0
2017-12-25T03:15:53.455Z,0
2017-12-25T03:16:33.992Z,0
2017-12-25T03:17:14.501Z,0
2017-12-25T03:17:55.038Z,0
2017-12-25T03:18:35.575Z,0
2017-12-25T03:19:16.086Z,0
2017-12-25T03:19:56.635Z,0
2017-12-25T03:20:37.200Z,0
2017-12-25T03:21:17.720Z,0
2017-12-25T03:21:58.239Z,0
2017-12-25T03:22:38.727Z,0
2017-12-25T03:23:19.272Z,0
2017-12-25T03:23:59.815Z,0
2017-12-25T03:24:40.361Z,0
2017-12-25T03:25:20.909Z,0
2017-12-25T03:26:01.461Z,0
2017-12-25T03:26:42.004Z,0
2017-12-25T03:27:22.563Z,0
2017-12-25T03:28:03.108Z,0
2017-12-25T03:28:43.655Z,0
2017-12-25T03:29:24.189Z,0
2017-12-25T03:30:04.732Z,0
2017-12-25T03:30:45.242Z,0
2017-12-25T03:31:25.779Z,0
2017-12-25T03:32:06.325Z,0
2017-12-25T03:32:46.867Z,0
2017-12-25T03:33:27.419Z,0
2017-12-25T03:34:07.974Z,0
2017-12-25T03:34:48.506Z,0
2017-12-25T03:35:29.084Z,0
2017-12-25T03:36:09.615Z,0
2017-12-25T03:36:50.181Z,0
2017-12-25T03:37:30.742Z,0
2017-12-25T03:38:11.354Z,0
2017-12-25T03:38:51.850Z,0
2017-12-25T03:39:32.379Z,0
2017-12-25T03:40:12.891Z,0
2017-12-25T03:40:53.442Z,0
2017-12-25T03:41:34.023Z,0
2017-12-25T03:42:14.569Z,0
2017-12-25T03:42:55.109Z,0
2017-12-25T03:43:35.660Z,0
2017-12-25T03:44:16.468Z,0
2017-12-25T03:44:56.956Z,0
2017-12-25T03:45:37.527Z,0
2017-12-25T03:46:18.096Z,0
2017-12-25T03:46:58.607Z,0
2017-12-25T03:47:39.113Z,0
2017-12-25T03:48:19.650Z,0
2017-12-25T03:49:00.207Z,0
2017-12-25T03:49:40.738Z,0
2017-12-25T03:50:21.281Z,0
2017-12-25T03:51:01.807Z,0
2017-12-25T03:51:42.359Z,0
2017-12-25T03:52:22.954Z,0
2017-12-25T03:53:03.491Z,0
2017-12-25T03:53:44.043Z,0
2017-12-25T03:54:24.579Z,0
2017-12-25T03:55:05.133Z,0
2017-12-25T03:55:45.703Z,0
2017-12-25T03:56:26.227Z,0
2017-12-25T03:57:06.775Z,0
2017-12-25T03:57:47.349Z,0
2017-12-25T03:58:27.889Z,0
2017-12-25T03:59:08.408Z,0
2017-12-25T03:59:48.911Z,0
2017-12-25T04:00:29.456Z,0
2017-12-25T04:01:10.003Z,0
2017-12-25T04:01:50.533Z,0
2017-12-25T04:02:31.094Z,0
2017-12-25T04:03:11.617Z,0
2017-12-25T04:03:52.158Z,0
2017-12-25T04:04:32.673Z,0
2017-12-25T04:05:13.194Z,0
2017-12-25T04:05:53.744Z,0
2017-12-25T04:06:34.331Z,0
2017-12-25T04:07:14.856Z,0
2017-12-25T04:07:55.366Z,0
2017-12-25T04:08:35.923Z,0
2017-12-25T04:09:16.433Z,0
2017-12-25T04:09:57.009Z,0
2017-12-25T04:10:37.584Z,0
2017-12-25T04:11:18.155Z,0
2017-12-25T04:11:58.638Z,0
2017-12-25T04:12:39.181Z,0
2017-12-25T04:13:19.738Z,0
2017-12-25T04:14:00.270Z,0
2017-12-25T04:14:40.808Z,0
2017-12-25T04:15:21.349Z,0
2017-12-25T04:16:01.937Z,0
2017-12-25T04:16:42.489Z,0
2017-12-25T04:17:23.006Z,0
2017-12-25T04:18:03.574Z,0
2017-12-25T04:18:44.123Z,0
2017-12-25T04:19:24.667Z,0
2017-12-25T04:20:05.210Z,0
2017-12-25T04:20:45.770Z,0
2017-12-25T04:21:26.334Z,0
2017-12-25T04:22:06.877Z,0
2017-12-25T04:22:47.414Z,0
2017-12-25T04:23:27.970Z,0
2017-12-25T04:24:08.509Z,0
2017-12-25T04:24:49.095Z,0
2017-12-25T04:25:29.602Z,0
2017-12-25T04:26:10.151Z,0
2017-12-25T04:26:50.688Z,0
2017-12-25T04:27:31.252Z,0
2017-12-25T04:28:11.848Z,0
2017-12-25T04:28:52.450Z,0
2017-12-25T04:29:32.945Z,0
2017-12-25T04:30:13.456Z,0
2017-12-25T04:30:53.965Z,0
2017-12-25T04:31:34.537Z,0
2017-12-25T04:32:15.065Z,0
2017-12-25T04:32:55.569Z,0
2017-12-25T04:33:36.094Z,0
2017-12-25T04:34:16.659Z,0
2017-12-25T04:34:57.227Z,0
2017-12-25T04:35:37.782Z,0
2017-12-25T04:36:18.260Z,0
2017-12-25T04:36:58.858Z,0
2017-12-25T04:37:39.379Z,0
2017-12-25T04:38:19.963Z,0
2017-12-25T04:39:00.449Z,0
2017-12-25T04:39:41.006Z,0
2017-12-25T04:40:21.585Z,0
2017-12-25T04:41:02.129Z,0
2017-12-25T04:41:42.672Z,0
2017-12-25T04:42:23.175Z,0
2017-12-25T04:43:03.723Z,0
2017-12-25T04:43:44.243Z,0
2017-12-25T04:44:24.790Z,0
2017-12-25T04:45:05.327Z,0
2017-12-25T04:45:45.903Z,0
2017-12-25T04:46:26.443Z,0
2017-12-25T04:47:06.991Z,0
2017-12-25T04:47:47.502Z,0
2017-12-25T04:48:28.033Z,0
2017-12-25T04:49:08.566Z,0
2017-12-25T04:49:49.100Z,0
2017-12-25T04:50:29.604Z,0
2017-12-25T04:51:10.136Z,0
2017-12-25T04:51:50.652Z,0
2017-12-25T04:52:31.214Z,0
2017-12-25T04:53:11.764Z,0
2017-12-25T04:53:52.310Z,0
2017-12-25T04:54:32.890Z,0
2017-12-25T04:55:13.421Z,0
2017-12-25T04:55:53.970Z,0
2017-12-25T04:56:34.511Z,0
2017-12-25T04:57:15.113Z,0
2017-12-25T04:57:55.695Z,0
2017-12-25T04:58:36.212Z,0
2017-12-25T04:59:16.788Z,0
2017-12-25T04:59:57.302Z,0
2017-12-25T05:00:37.826Z,0
2017-12-25T05:01:18.409Z,0
2017-12-25T05:01:58.978Z,0
2017-12-25T05:02:39.533Z,0
2017-12-25T05:03:20.056Z,0
2017-12-25T05:04:00.571Z,0
2017-12-25T05:04:41.122Z,0
2017-12-25T05:05:21.680Z,0
2017-12-25T05:06:02.229Z,0
2017-12-25T05:06:43.260Z,0
2017-12-25T05:07:23.767Z,0
2017-12-25T05:08:04.360Z,0
2017-12-25T05:08:44.918Z,0
2017-12-25T05:09:25.437Z,0
2017-12-25T05:10:05.976Z,0
2017-12-25T05:10:46.524Z,0
2017-12-25T05:11:27.069Z,0
2017-12-25T05:12:07.590Z,0
2017-12-25T05:12:48.137Z,0
2017-12-25T05:13:28.693Z,0
2017-12-25T05:14:09.271Z,0
2017-12-25T05:14:49.795Z,0
2017-12-25T05:15:30.343Z,0
2017-12-25T05:16:10.890Z,0
2017-12-25T05:16:51.437Z,0
2017-12-25T05:17:31.956Z,0
2017-12-25T05:18:12.486Z,0
2017-12-25T05:18:53.031Z,0
2017-12-25T05:19:34.236Z,0
2017-12-25T05:20:14.753Z,0
2017-12-25T05:20:55.296Z,0
2017-12-25T05:21:35.858Z,0
2017-12-25T05:22:16.396Z,0
2017-12-25T05:22:56.944Z,0
2017-12-25T05:23:37.517Z,0
2017-12-25T05:24:18.032Z,0
2017-12-25T05:24:58.601Z,0
2017-12-25T05:25:39.116Z,0
2017-12-25T05:26:19.630Z,0
2017-12-25T05:27:00.171Z,0
2017-12-25T05:27:40.767Z,0
2017-12-25T05:28:21.269Z,0
2017-12-25T05:29:01.805Z,0
2017-12-25T05:29:42.359Z,0
2017-12-25T05:30:22.879Z,0
2017-12-25T05:31:03.394Z,0
2017-12-25T05:31:43.923Z,0
2017-12-25T05:32:24.465Z,0
2017-12-25T05:33:04.998Z,0
2017-12-25T05:33:45.579Z,0
2017-12-25T05:34:26.106Z,0
2017-12-25T05:35:06.681Z,0
2017-12-25T05:35:47.169Z,0
2017-12-25T05:36:27.696Z,0
2017-12-25T05:37:08.242Z,0
2017-12-25T05:37:48.755Z,0
2017-12-25T05:38:30.235Z,0
2017-12-25T05:39:10.802Z,0
2017-12-25T05:39:51.333Z,0
2017-12-25T05:40:31.903Z,0
2017-12-25T05:41:12.393Z,0
2017-12-25T05:41:52.935Z,0
2017-12-25T05:42:33.460Z,0
2017-12-25T05:43:13.962Z,0
2017-12-25T05:43:54.498Z,0
2017-12-25T05:44:35.086Z,0
2017-12-25T05:45:15.576Z,0
2017-12-25T05:45:56.134Z,0
2017-12-25T05:46:36.687Z,0
2017-12-25T05:47:17.272Z,0
2017-12-25T05:47:57.827Z,0
2017-12-25T05:48:38.363Z,0
2017-12-25T05:49:18.927Z,0
2017-12-25T05:49:59.499Z,0
2017-12-25T05:50:40.058Z,0
2017-12-25T05:51:20.602Z,0
2017-12-25T05:52:01.098Z,0
2017-12-25T05:52:41.619Z,0
2017-12-25T05:53:22.197Z,0
2017-12-25T05:54:02.740Z,0
2017-12-25T05:54:43.246Z,0
2017-12-25T05:55:23.788Z,0
2017-12-25T05:56:04.344Z,0
2017-12-25T05:56:44.830Z,0
2017-12-25T05:57:25.426Z,0
2017-12-25T05:58:05.962Z,0
2017-12-25T05:58:46.473Z,0
2017-12-25T05:59:27.011Z,0
2017-12-25T06:00:07.584Z,0
2017-12-25T06:00:48.110Z,0
2017-12-25T06:01:28.671Z,0
2017-12-25T06:02:09.210Z,0
2017-12-25T06:02:49.753Z,0
2017-12-25T06:03:30.289Z,0
2017-12-25T06:04:10.819Z,0
2017-12-25T06:04:51.360Z,0
2017-12-25T06:05:31.909Z,0
2017-12-25T06:06:12.437Z,0
2017-12-25T06:06:52.993Z,0
2017-12-25T06:07:33.547Z,0
2017-12-25T06:08:14.086Z,0
2017-12-25T06:08:54.655Z,0
2017-12-25T06:09:35.197Z,0
2017-12-25T06:10:15.734Z,0
2017-12-25T06:10:56.302Z,0
2017-12-25T06:11:36.866Z,0
2017-12-25T06:12:17.415Z,0
2017-12-25T06:12:57.966Z,0
2017-12-25T06:13:38.515Z,0
2017-12-25T06:14:19.100Z,0
2017-12-25T06:14:59.611Z,0
2017-12-25T06:15:40.166Z,0
2017-12-25T06:16:20.666Z,0
2017-12-25T06:17:01.197Z,0
2017-12-25T06:17:41.761Z,0
2017-12-25T06:18:22.276Z,0
2017-12-25T06:19:02.808Z,0
2017-12-25T06:19:43.324Z,0
2017-12-25T06:20:23.857Z,0
2017-12-25T06:21:04.398Z,0
2017-12-25T06:21:44.948Z,0
2017-12-25T06:22:25.513Z,0
2017-12-25T06:23:06.050Z,0
2017-12-25T06:23:46.634Z,0
2017-12-25T06:24:27.160Z,0
2017-12-25T06:25:07.635Z,0
2017-12-25T06:25:48.146Z,0
2017-12-25T06:26:28.736Z,0
2017-12-25T06:27:09.250Z,0
2017-12-25T06:27:49.779Z,0
2017-12-25T06:28:30.352Z,0
2017-12-25T06:29:10.860Z,0
2017-12-25T06:29:51.410Z,0
2017-12-25T06:30:31.996Z,0
2017-12-25T06:31:12.583Z,0
2017-12-25T06:31:53.107Z,0
2017-12-25T06:32:34.292Z,0
2017-12-25T06:33:14.754Z,0
2017-12-25T06:33:55.276Z,0
2017-12-25T06:34:35.797Z,0
2017-12-25T06:35:16.351Z,0
2017-12-25T06:35:56.881Z,0
2017-12-25T06:36:37.507Z,0
2017-12-25T06:37:18.047Z,0
2017-12-25T06:37:58.531Z,0
2017-12-25T06:38:39.063Z,0
2017-12-25T06:39:19.598Z,0
2017-12-25T06:40:00.163Z,0
2017-12-25T06:40:40.747Z,0
2017-12-25T06:41:21.278Z,0
2017-12-25T06:42:01.782Z,0
2017-12-25T06:42:42.353Z,0
2017-12-25T06:43:22.842Z,0
2017-12-25T06:44:03.369Z,0
2017-12-25T06:44:43.891Z,0
2017-12-25T06:45:24.442Z,0
2017-12-25T06:46:04.992Z,0
2017-12-25T06:46:45.505Z,0
2017-12-25T06:47:26.076Z,0
2017-12-25T06:48:06.602Z,0
2017-12-25T06:48:47.119Z,0
2017-12-25T06:49:27.661Z,0
2017-12-25T06:50:08.207Z,0
2017-12-25T06:50:48.730Z,0
2017-12-25T06:51:29.255Z,0
2017-12-25T06:52:09.840Z,0
2017-12-25T06:52:50.356Z,0
2017-12-25T06:53:30.953Z,0
2017-12-25T06:54:11.474Z,4
2017-12-25T06:54:51.986Z,4
2017-12-25T06:55:32.556Z,4
2017-12-25T06:56:13.091Z,0
2017-12-25T06:56:53.611Z,0
2017-12-25T06:57:34.126Z,0
2017-12-25T06:58:14.703Z,4
2017-12-25T06:58:55.194Z,4
2017-12-25T06:59:35.713Z,4
2017-12-25T07:00:16.236Z,0
2017-12-25T07:00:56.770Z,4
2017-12-25T07:01:37.306Z,4
2017-12-25T07:02:17.833Z,4
2017-12-25T07:02:58.379Z,8
2017-12-25T07:03:38.902Z,4
2017-12-25T07:04:19.448Z,4
2017-12-25T07:04:59.999Z,8
2017-12-25T07:05:40.530Z,8
2017-12-25T07:06:21.081Z,8
2017-12-25T07:07:01.606Z,8
2017-12-25T07:07:42.134Z,8
2017-12-25T07:08:22.657Z,8
2017-12-25T07:09:03.213Z,12
2017-12-25T07:09:43.768Z,12
2017-12-25T07:10:24.302Z,12
2017-12-25T07:11:04.831Z,12
2017-12-25T07:11:45.414Z,16
2017-12-25T07:12:25.928Z,16
2017-12-25T07:13:06.477Z,12
2017-12-25T07:13:46.977Z,16
2017-12-25T07:14:27.531Z,16
2017-12-25T07:15:08.023Z,16
2017-12-25T07:15:48.558Z,20
2017-12-25T07:16:29.129Z,20
2017-12-25T07:17:09.695Z,24
2017-12-25T07:17:50.213Z,24
2017-12-25T07:18:30.797Z,24
2017-12-25T07:19:11.297Z,24
2017-12-25T07:19:51.831Z,28
2017-12-25T07:20:32.347Z,28
2017-12-25T07:21:12.884Z,32
2017-12-25T07:21:53.447Z,32
2017-12-25T07:22:33.965Z,32
2017-12-25T07:23:14.497Z,36
2017-12-25T07:23:55.042Z,40
2017-12-25T07:24:35.612Z,44
2017-12-25T07:25:16.179Z,44
2017-12-25T07:25:56.622Z,48
2017-12-25T07:26:37.176Z,52
2017-12-25T07:27:17.720Z,52
2017-12-25T07:27:58.235Z,52
2017-12-25T07:28:38.760Z,56
2017-12-25T07:29:19.317Z,60
2017-12-25T07:29:59.877Z,60
2017-12-25T07:30:40.421Z,68
2017-12-25T07:31:20.962Z,76
2017-12-25T07:32:01.499Z,76
2017-12-25T07:32:42.041Z,80
2017-12-25T07:33:23.243Z,84
2017-12-25T07:34:03.201Z,92
2017-12-25T07:34:43.703Z,96
2017-12-25T07:35:24.220Z,96
2017-12-25T07:36:04.773Z,96
2017-12-25T07:36:45.279Z,96
2017-12-25T07:37:25.796Z,100
2017-12-25T07:38:06.355Z,108
2017-12-25T07:38:46.906Z,104
2017-12-25T07:39:27.463Z,104
2017-12-25T07:40:08.023Z,112
2017-12-25T07:40:48.557Z,116
2017-12-25T07:41:29.118Z,120
2017-12-25T07:42:09.647Z,124
2017-12-25T07:42:50.214Z,132
2017-12-25T07:43:30.735Z,136
2017-12-25T07:44:11.340Z,140
2017-12-25T07:44:51.829Z,144
2017-12-25T07:45:32.394Z,156
2017-12-25T07:46:12.906Z,180
2017-12-25T07:46:53.509Z,196
2017-12-25T07:47:33.997Z,204
2017-12-25T07:48:14.575Z,196
2017-12-25T07:48:55.064Z,192
2017-12-25T07:49:35.629Z,196
2017-12-25T07:50:16.198Z,192
2017-12-25T07:50:56.688Z,192
2017-12-25T07:51:37.271Z,192
2017-12-25T07:52:17.724Z,188
2017-12-25T07:52:58.283Z,188
2017-12-25T07:53:38.811Z,188
2017-12-25T07:54:19.332Z,192
2017-12-25T07:54:59.884Z,196
2017-12-25T07:55:40.445Z,196
2017-12-25T07:56:20.927Z,192
2017-12-25T07:57:01.489Z,192
2017-12-25T07:57:42.014Z,204
2017-12-25T07:58:22.579Z,204
2017-12-25T07:59:03.132Z,204
2017-12-25T07:59:43.655Z,204
2017-12-25T08:00:24.179Z,216
2017-12-25T08:01:04.703Z,216
2017-12-25T08:01:45.246Z,224
2017-12-25T08:02:25.804Z,228
2017-12-25T08:03:06.338Z,232
2017-12-25T08:03:46.901Z,240
2017-12-25T08:04:27.410Z,248
2017-12-25T08:05:07.973Z,252
2017-12-25T08:05:48.516Z,252
2017-12-25T08:06:29.060Z,260
2017-12-25T08:07:09.607Z,260
2017-12-25T08:07:50.185Z,264
2017-12-25T08:08:30.686Z,272
2017-12-25T08:09:11.246Z,276
2017-12-25T08:09:51.792Z,280
2017-12-25T08:10:32.314Z,284
2017-12-25T08:11:12.926Z,288
2017-12-25T08:11:53.458Z,288
2017-12-25T08:12:33.990Z,292
2017-12-25T08:13:14.544Z,292
2017-12-25T08:13:55.098Z,288
2017-12-25T08:14:35.682Z,296
2017-12-25T08:15:16.196Z,308
2017-12-25T08:15:56.713Z,316
2017-12-25T08:16:37.263Z,320
2017-12-25T08:17:17.832Z,328
2017-12-25T08:17:58.292Z,336
2017-12-25T08:18:38.845Z,344
2017-12-25T08:19:19.379Z,352
2017-12-25T08:19:59.912Z,364
2017-12-25T08:20:40.458Z,380
2017-12-25T08:21:20.985Z,388
2017-12-25T08:22:01.541Z,396
2017-12-25T08:22:42.084Z,396
2017-12-25T08:23:22.626Z,396
2017-12-25T08:24:03.131Z,392
2017-12-25T08:24:43.683Z,384
2017-12-25T08:25:24.272Z,384
2017-12-25T08:26:04.840Z,388
2017-12-25T08:26:45.276Z,400
2017-12-25T08:27:25.823Z,400
2017-12-25T08:28:06.316Z,408
2017-12-25T08:28:46.880Z,424
2017-12-25T08:29:27.408Z,444
2017-12-25T08:30:07.971Z,448
2017-12-25T08:30:48.523Z,464
2017-12-25T08:31:29.126Z,484
2017-12-25T08:32:09.603Z,500
2017-12-25T08:32:50.164Z,528
2017-12-25T08:33:30.712Z,552
2017-12-25T08:34:11.262Z,572
2017-12-25T08:34:51.816Z,572
2017-12-25T08:35:32.353Z,568
2017-12-25T08:36:12.898Z,564
2017-12-25T08:36:53.424Z,572
2017-12-25T08:37:33.968Z,584
2017-12-25T08:38:14.532Z,588
2017-12-25T08:38:55.070Z,596
2017-12-25T08:39:35.606Z,612
2017-12-25T08:40:16.178Z,616
2017-12-25T08:40:56.676Z,624
2017-12-25T08:41:37.218Z,632
2017-12-25T08:42:17.804Z,640
2017-12-25T08:42:58.293Z,656
2017-12-25T08:43:38.843Z,660
2017-12-25T08:44:19.402Z,656
2017-12-25T08:44:59.925Z,660
2017-12-25T08:45:40.489Z,660
2017-12-25T08:46:21.002Z,656
2017-12-25T08:47:01.551Z,660
2017-12-25T08:47:42.079Z,672
2017-12-25T08:48:22.624Z,680
2017-12-25T08:49:03.189Z,684
2017-12-25T08:49:43.756Z,676
2017-12-25T08:50:24.244Z,660
2017-12-25T08:51:04.783Z,652
2017-12-25T08:51:45.358Z,656
2017-12-25T08:52:25.866Z,668
2017-12-25T08:53:06.373Z,672
2017-12-25T08:53:46.923Z,668
2017-12-25T08:54:27.476Z,668
2017-12-25T08:55:07.997Z,668
2017-12-25T08:55:48.549Z,660
2017-12-25T08:56:29.105Z,656
2017-12-25T08:57:09.614Z,652
2017-12-25T08:57:50.216Z,660
2017-12-25T08:58:30.762Z,676
2017-12-25T08:59:11.263Z,688
2017-12-25T08:59:51.826Z,700
2017-12-25T09:00:32.336Z,700
2017-12-25T09:01:12.887Z,708
2017-12-25T09:01:53.427Z,724
2017-12-25T09:02:33.963Z,732
2017-12-25T09:03:14.490Z,724
2017-12-25T09:03:55.100Z,708
2017-12-25T09:04:35.585Z,688
2017-12-25T09:05:16.156Z,672
2017-12-25T09:05:56.696Z,668
2017-12-25T09:06:37.239Z,672
2017-12-25T09:07:17.803Z,672
2017-12-25T09:07:58.376Z,672
2017-12-25T09:08:38.916Z,684
2017-12-25T09:09:19.455Z,692
2017-12-25T09:10:00.003Z,704
2017-12-25T09:10:40.562Z,708
2017-12-25T09:11:21.124Z,716
2017-12-25T09:12:01.672Z,732
2017-12-25T09:12:42.243Z,740
2017-12-25T09:13:22.788Z,740
2017-12-25T09:14:03.339Z,740
2017-12-25T09:14:43.879Z,752
2017-12-25T09:15:24.461Z,756
2017-12-25T09:16:04.984Z,764
2017-12-25T09:16:45.527Z,776
2017-12-25T09:17:26.090Z,780
2017-12-25T09:18:06.638Z,788
2017-12-25T09:18:47.189Z,784
2017-12-25T09:19:27.723Z,776
2017-12-25T09:20:08.251Z,776
2017-12-25T09:20:48.842Z,792
2017-12-25T09:21:29.361Z,820
2017-12-25T09:22:09.897Z,852
2017-12-25T09:22:50.476Z,884
2017-12-25T09:23:31.003Z,912
2017-12-25T09:24:11.591Z,920
2017-12-25T09:24:52.161Z,924
2017-12-25T09:25:32.752Z,928
2017-12-25T09:26:13.276Z,944
2017-12-25T09:26:53.782Z,964
2017-12-25T09:27:34.327Z,980
2017-12-25T09:28:14.893Z,996
2017-12-25T09:28:55.410Z,1004
2017-12-25T09:29:35.974Z,1020
2017-12-25T09:30:16.531Z,1024
2017-12-25T09:30:57.091Z,1004
2017-12-25T09:31:37.634Z,1008
2017-12-25T09:32:18.194Z,1004
2017-12-25T09:32:58.734Z,984
2017-12-25T09:33:39.295Z,980
2017-12-25T09:34:19.809Z,1000
2017-12-25T09:35:00.369Z,988
2017-12-25T09:35:40.866Z,984
2017-12-25T09:36:21.382Z,992
2017-12-25T09:37:01.888Z,984
2017-12-25T09:37:42.427Z,984
2017-12-25T09:38:23.049Z,976
2017-12-25T09:39:03.542Z,960
2017-12-25T09:39:44.056Z,964
2017-12-25T09:40:24.588Z,956
2017-12-25T09:41:05.162Z,956
2017-12-25T09:41:45.715Z,952
2017-12-25T09:42:26.301Z,964
2017-12-25T09:43:06.883Z,984
2017-12-25T09:43:47.392Z,1004
2017-12-25T09:44:27.950Z,1024
2017-12-25T09:45:08.431Z,1028
2017-12-25T09:45:48.985Z,1040
2017-12-25T09:46:29.527Z,1072
2017-12-25T09:47:10.096Z,1080
2017-12-25T09:47:50.578Z,1068
2017-12-25T09:48:31.119Z,1072
2017-12-25T09:49:11.654Z,1092
2017-12-25T09:49:52.224Z,1140